Time;durP1;ratioP1;P1;durP2;ratioP2;P2;SDS_P1;SDS_P2;PMS_P1;PMS_P2;Temp;Humidity;BMP_temperature;BMP_pressure;BME280_temperature;BME280_humidity;BME280_pressure;Samples;Min_cycle;Max_cycle;Signal;HPM_P1;HPM_P2
2023/03/16 00:02:02;;;;;;;0.20;0.20;;;-0.90;99.90;;;;;;5055033;28;20106;-73
2023/03/16 00:04:29;;;;;;;0.20;0.20;;;-1.00;99.90;;;;;;5055047;28;20664;-73
2023/03/16 00:06:55;;;;;;;0.20;0.20;;;-1.00;99.90;;;;;;5036913;28;20406;-73
2023/03/16 00:09:21;;;;;;;0.28;0.28;;;-1.00;99.90;;;;;;5054940;28;20033;-73
2023/03/16 00:11:46;;;;;;;0.20;0.20;;;-1.00;99.90;;;;;;5055168;28;20036;-73
2023/03/16 00:14:12;;;;;;;0.20;0.20;;;-0.90;99.90;;;;;;5055101;28;20021;-73
2023/03/16 00:16:38;;;;;;;0.10;0.10;;;-0.90;99.90;;;;;;5054685;28;20025;-73
2023/03/16 00:19:04;;;;;;;0.20;0.20;;;-0.90;99.90;;;;;;5054737;28;20014;-73
2023/03/16 00:21:30;;;;;;;0.20;0.20;;;-0.90;99.90;;;;;;5055233;28;20017;-73
2023/03/16 00:23:57;;;;;;;0.20;0.20;;;-1.00;99.90;;;;;;5036780;28;20032;-73
2023/03/16 00:26:22;;;;;;;0.20;0.20;;;-0.90;99.90;;;;;;5054509;28;20032;-73
2023/03/16 00:28:48;;;;;;;0.20;0.20;;;-0.90;99.90;;;;;;5054545;28;20081;-73
2023/03/16 00:31:14;;;;;;;0.20;0.20;;;-0.90;99.90;;;;;;5054507;28;20082;-73
2023/03/16 00:33:41;;;;;;;0.25;0.25;;;-0.80;99.90;;;;;;5035862;28;20025;-73
2023/03/16 00:36:10;;;;;;;0.20;0.20;;;-0.80;99.90;;;;;;5054262;28;20033;-73
2023/03/16 00:38:37;;;;;;;0.20;0.20;;;-0.70;99.90;;;;;;5054620;28;20017;-73
2023/03/16 00:41:05;;;;;;;0.20;0.20;;;-0.90;99.90;;;;;;5054568;28;20017;-73
2023/03/16 00:43:39;;;;;;;0.20;0.20;;;-0.80;99.90;;;;;;5054491;28;20029;-73
2023/03/16 00:46:06;;;;;;;0.20;0.20;;;-0.70;99.90;;;;;;5054278;28;20025;-73
2023/03/16 00:48:37;;;;;;;0.20;0.20;;;-0.70;99.90;;;;;;5054295;28;20025;-73
2023/03/16 00:51:07;;;;;;;0.20;0.20;;;-0.70;99.90;;;;;;5036205;28;20394;-73
2023/03/16 00:53:35;;;;;;;0.20;0.20;;;-0.70;99.90;;;;;;5054092;28;20032;-73
2023/03/16 00:56:03;;;;;;;0.20;0.20;;;-0.70;99.90;;;;;;5054038;28;20031;-73
2023/03/16 00:58:34;;;;;;;0.13;0.13;;;-0.80;99.90;;;;;;5053979;28;20460;-73
2023/03/16 01:01:04;;;;;;;0.30;0.30;;;-0.70;99.90;;;;;;5054244;28;20032;-73
2023/03/16 01:03:30;;;;;;;0.28;0.28;;;-0.70;99.90;;;;;;5053917;28;20127;-73
2023/03/16 01:05:59;;;;;;;0.25;0.25;;;-0.60;99.90;;;;;;5053652;28;20044;-73
2023/03/16 01:08:26;;;;;;;0.20;0.20;;;-0.50;99.90;;;;;;5053765;28;20024;-73
2023/03/16 01:10:53;;;;;;;0.20;0.20;;;-0.40;99.90;;;;;;5035871;28;20028;-73
2023/03/16 01:13:20;;;;;;;0.20;0.20;;;-0.20;99.90;;;;;;5053685;28;20513;-73
2023/03/16 01:15:46;;;;;;;0.20;0.20;;;-0.10;99.90;;;;;;5053557;28;20030;-73
2023/03/16 01:18:12;;;;;;;0.20;0.20;;;-0.10;99.90;;;;;;5036111;28;20127;-73
2023/03/16 01:20:38;;;;;;;0.20;0.20;;;0.00;99.90;;;;;;5053590;28;20017;-73
2023/03/16 01:23:04;;;;;;;0.20;0.20;;;-0.10;99.90;;;;;;5053516;28;20025;-73
2023/03/16 01:25:29;;;;;;;0.20;0.20;;;-0.10;99.90;;;;;;5053466;28;20381;-73
2023/03/16 01:27:55;;;;;;;0.20;0.20;;;-0.10;99.90;;;;;;5053718;28;20036;-73
2023/03/16 01:30:20;;;;;;;0.13;0.13;;;-0.20;99.90;;;;;;5053435;28;20029;-73
2023/03/16 01:32:46;;;;;;;0.17;0.17;;;-0.30;99.90;;;;;;5053369;28;20029;-73
2023/03/16 01:35:11;;;;;;;0.20;0.20;;;-0.40;99.90;;;;;;5053232;28;20033;-73
2023/03/16 01:37:37;;;;;;;0.30;0.30;;;-0.50;99.90;;;;;;5053502;28;20028;-73
2023/03/16 01:40:05;;;;;;;0.20;0.20;;;-0.40;99.90;;;;;;5053279;28;20017;-73
2023/03/16 01:42:31;;;;;;;0.20;0.20;;;-0.50;99.90;;;;;;5053218;28;20021;-73
2023/03/16 01:45:04;;;;;;;0.20;0.20;;;-0.50;99.90;;;;;;5053120;28;20029;-73
2023/03/16 01:47:37;;;;;;;0.20;0.20;;;-0.60;99.90;;;;;;5053487;28;20025;-73
2023/03/16 01:50:04;;;;;;;0.20;0.20;;;-0.60;99.90;;;;;;5053176;28;20024;-73
2023/03/16 01:52:34;;;;;;;0.15;0.15;;;-0.60;99.90;;;;;;5053157;28;20021;-73
2023/03/16 01:55:06;;;;;;;0.30;0.30;;;-0.70;99.90;;;;;;5053350;28;20028;-73
2023/03/16 01:57:37;;;;;;;0.28;0.28;;;-0.70;99.90;;;;;;5053311;28;20414;-73
2023/03/16 02:00:19;;;;;;;0.30;0.30;;;-0.70;99.90;;;;;;5053201;28;20052;-74
2023/03/16 02:02:50;;;;;;;0.20;0.20;;;-0.70;99.90;;;;;;5053319;28;20171;-73
2023/03/16 02:05:21;;;;;;;0.30;0.30;;;-0.80;99.90;;;;;;5053041;28;20029;-73
2023/03/16 02:07:49;;;;;;;0.20;0.20;;;-0.80;99.90;;;;;;5053257;28;20025;-74
2023/03/16 02:10:16;;;;;;;0.20;0.20;;;-0.80;99.90;;;;;;5052916;28;20032;-73
2023/03/16 02:12:42;;;;;;;0.30;0.30;;;-0.90;99.90;;;;;;5053172;28;20029;-74
2023/03/16 02:15:09;;;;;;;0.10;0.10;;;-0.90;99.90;;;;;;5052811;28;20063;-74
2023/03/16 02:17:35;;;;;;;0.28;0.28;;;-0.90;99.90;;;;;;5052848;28;20017;-74
2023/03/16 02:20:22;;;;;;;0.20;0.20;;;-0.90;99.90;;;;;;5053128;28;20025;-73
2023/03/16 02:22:52;;;;;;;0.20;0.20;;;-0.90;99.90;;;;;;5035041;28;20021;-73
2023/03/16 02:25:21;;;;;;;0.20;0.20;;;-0.80;99.90;;;;;;5052778;28;20019;-73
2023/03/16 02:28:09;;;;;;;0.20;0.20;;;-0.80;99.90;;;;;;5052762;28;20470;-73
2023/03/16 02:30:35;;;;;;;0.20;0.20;;;-0.80;99.90;;;;;;5053065;28;20045;-74
2023/03/16 02:33:03;;;;;;;0.20;0.20;;;-0.80;99.90;;;;;;5052750;28;20033;-73
2023/03/16 02:35:30;;;;;;;0.30;0.30;;;-0.80;99.90;;;;;;5034768;28;20029;-73
2023/03/16 02:37:55;;;;;;;0.20;0.20;;;-0.80;99.90;;;;;;5035280;28;20164;-74
2023/03/16 02:40:30;;;;;;;0.25;0.25;;;-0.80;99.90;;;;;;5052941;28;20121;-73
2023/03/16 02:43:05;;;;;;;0.20;0.20;;;-0.80;99.90;;;;;;5052827;28;20100;-74
2023/03/16 02:45:53;;;;;;;0.28;0.28;;;-0.60;99.90;;;;;;5052860;28;20051;-74
2023/03/16 02:48:42;;;;;;;0.13;0.13;;;-0.50;99.90;;;;;;5052630;28;20025;-73
2023/03/16 02:51:09;;;;;;;0.20;0.20;;;-0.40;99.90;;;;;;5052823;28;20021;-73
2023/03/16 02:53:34;;;;;;;0.20;0.20;;;-0.40;99.90;;;;;;5052827;28;20102;-74
2023/03/16 02:56:01;;;;;;;0.20;0.20;;;-0.40;99.90;;;;;;5052359;28;20075;-74
2023/03/16 02:58:27;;;;;;;0.20;0.20;;;-0.40;99.90;;;;;;5056478;28;20466;-74
2023/03/16 03:00:55;;;;;;;0.15;0.15;;;-0.40;99.90;;;;;;5056420;28;20053;-73
2023/03/16 03:03:21;;;;;;;0.15;0.15;;;-0.30;99.90;;;;;;5038703;28;20025;-74
2023/03/16 03:05:47;;;;;;;0.20;0.20;;;-0.40;99.90;;;;;;5056287;28;20036;-73
2023/03/16 03:08:13;;;;;;;0.20;0.20;;;-0.40;99.90;;;;;;5056105;28;20397;-73
2023/03/16 03:10:38;;;;;;;0.20;0.20;;;-0.30;99.90;;;;;;5038218;28;20021;-73
2023/03/16 03:13:06;;;;;;;0.13;0.13;;;-0.40;99.90;;;;;;5055983;28;20082;-73
2023/03/16 03:15:32;;;;;;;0.20;0.20;;;-0.40;99.90;;;;;;5055866;28;20478;-73
2023/03/16 03:17:58;;;;;;;0.20;0.20;;;-0.40;99.90;;;;;;5056101;28;20044;-73
2023/03/16 03:20:23;;;;;;;0.20;0.20;;;-0.40;99.90;;;;;;5055852;28;20021;-74
2023/03/16 03:22:51;;;;;;;0.20;0.20;;;-0.40;99.90;;;;;;5055772;28;20025;-73
2023/03/16 03:25:18;;;;;;;0.20;0.20;;;-0.40;99.90;;;;;;5055826;28;20013;-73
2023/03/16 03:27:44;;;;;;;0.20;0.20;;;-0.40;99.90;;;;;;5037821;28;20028;-73
2023/03/16 03:30:13;;;;;;;0.20;0.20;;;-0.40;99.90;;;;;;5055953;28;20029;-73
2023/03/16 03:32:40;;;;;;;0.20;0.20;;;-0.40;99.90;;;;;;5055728;28;20031;-73
2023/03/16 03:35:06;;;;;;;0.10;0.10;;;-0.30;99.90;;;;;;5055519;28;20033;-74
2023/03/16 03:37:32;;;;;;;0.20;0.20;;;-0.30;99.90;;;;;;5037609;28;20144;-73
2023/03/16 03:39:57;;;;;;;0.20;0.20;;;-0.30;99.90;;;;;;5055498;28;20494;-73
2023/03/16 03:42:23;;;;;;;0.20;0.20;;;-0.30;99.90;;;;;;5037541;28;20371;-73
2023/03/16 03:44:50;;;;;;;0.20;0.20;;;-0.20;99.90;;;;;;5037496;28;20029;-73
2023/03/16 03:47:16;;;;;;;0.10;0.10;;;-0.20;99.90;;;;;;5055670;28;20537;-73
2023/03/16 03:49:41;;;;;;;0.20;0.20;;;-0.10;99.90;;;;;;5055403;28;20075;-73
2023/03/16 03:52:07;;;;;;;0.20;0.20;;;0.00;99.90;;;;;;5055860;28;20028;-74
2023/03/16 03:54:33;;;;;;;0.20;0.20;;;0.00;99.90;;;;;;5055276;28;20033;-73
2023/03/16 03:56:58;;;;;;;0.13;0.13;;;0.10;99.90;;;;;;5055098;28;20032;-73
2023/03/16 03:59:24;;;;;;;0.20;0.20;;;0.10;99.90;;;;;;5055176;28;20029;-73
2023/03/16 04:01:52;;;;;;;0.20;0.20;;;0.10;99.90;;;;;;5055105;28;20025;-73
2023/03/16 04:04:18;;;;;;;0.10;0.10;;;0.20;99.90;;;;;;5055488;28;20021;-73
2023/03/16 04:06:44;;;;;;;0.20;0.20;;;0.20;99.90;;;;;;5149331;22;20055;-75
2023/03/16 04:09:10;;;;;;;0.20;0.20;;;0.20;99.90;;;;;;5053780;28;20394;-75
2023/03/16 04:11:36;;;;;;;0.20;0.20;;;0.20;99.90;;;;;;5037074;28;20472;-75
2023/03/16 04:14:01;;;;;;;0.20;0.20;;;0.10;99.90;;;;;;5036985;28;20025;-75
2023/03/16 04:16:27;;;;;;;0.20;0.20;;;0.10;99.90;;;;;;5054821;28;20033;-75
2023/03/16 04:18:53;;;;;;;0.20;0.20;;;0.00;99.90;;;;;;5054807;28;20025;-75
2023/03/16 04:21:19;;;;;;;0.20;0.20;;;-0.10;99.90;;;;;;5036866;28;20543;-75
2023/03/16 04:23:45;;;;;;;0.13;0.13;;;0.00;99.90;;;;;;5054646;28;20060;-74
2023/03/16 04:26:11;;;;;;;0.20;0.20;;;-0.10;99.90;;;;;;5054572;28;20056;-75
2023/03/16 04:28:37;;;;;;;0.20;0.20;;;0.00;99.90;;;;;;5054586;28;20024;-75
2023/03/16 04:31:05;;;;;;;0.20;0.20;;;0.00;99.90;;;;;;5054544;28;20490;-75
2023/03/16 04:33:32;;;;;;;0.20;0.20;;;0.00;99.90;;;;;;5054732;28;20044;-75
2023/03/16 04:35:59;;;;;;;0.10;0.10;;;0.00;99.90;;;;;;5054338;28;20017;-75
2023/03/16 04:38:24;;;;;;;0.20;0.20;;;0.10;99.90;;;;;;5054406;28;20021;-75
2023/03/16 04:40:50;;;;;;;0.22;0.22;;;0.10;99.90;;;;;;5054291;28;20032;-75
2023/03/16 04:43:16;;;;;;;0.20;0.20;;;0.10;99.90;;;;;;5054295;28;20021;-75
2023/03/16 04:45:41;;;;;;;0.20;0.20;;;0.10;99.90;;;;;;5036296;28;20025;-75
2023/03/16 04:48:08;;;;;;;0.10;0.10;;;0.10;99.90;;;;;;5054191;28;20033;-75
2023/03/16 04:50:34;;;;;;;0.13;0.13;;;0.10;99.90;;;;;;5036309;28;20029;-75
2023/03/16 04:52:59;;;;;;;0.20;0.20;;;0.20;99.90;;;;;;5054360;28;20021;-75
2023/03/16 04:55:25;;;;;;;0.20;0.20;;;0.30;99.90;;;;;;5054297;28;20040;-75
2023/03/16 04:57:51;;;;;;;0.20;0.20;;;0.40;99.90;;;;;;5054227;28;20036;-75
2023/03/16 05:00:21;;;;;;;0.20;0.20;;;0.40;99.90;;;;;;5053977;28;20021;-75
2023/03/16 05:02:47;;;;;;;0.13;0.13;;;0.60;99.90;;;;;;5036279;28;20025;-75
2023/03/16 05:05:13;;;;;;;0.20;0.20;;;0.60;99.90;;;;;;5053993;28;20039;-75
2023/03/16 05:07:40;;;;;;;0.17;0.17;;;0.70;99.90;;;;;;5036002;28;20509;-75
2023/03/16 05:10:07;;;;;;;0.20;0.20;;;0.70;99.90;;;;;;5035943;28;20043;-75
2023/03/16 05:12:32;;;;;;;0.20;0.20;;;0.80;99.90;;;;;;5053760;28;20020;-75
2023/03/16 05:14:58;;;;;;;0.10;0.10;;;0.90;99.90;;;;;;5053904;28;20493;-75
2023/03/16 05:17:23;;;;;;;0.20;0.20;;;0.90;99.90;;;;;;5053665;28;20083;-75
2023/03/16 05:19:49;;;;;;;0.20;0.20;;;0.90;99.90;;;;;;5053303;28;20029;-75
2023/03/16 05:22:15;;;;;;;0.20;0.20;;;1.00;99.90;;;;;;5053654;28;20075;-75
2023/03/16 05:24:40;;;;;;;0.10;0.10;;;1.00;99.90;;;;;;5053674;28;20103;-75
2023/03/16 05:27:06;;;;;;;0.20;0.20;;;1.00;99.90;;;;;;5053603;28;20108;-75
2023/03/16 05:29:31;;;;;;;0.20;0.20;;;1.10;99.90;;;;;;5053970;28;20040;-75
2023/03/16 05:31:58;;;;;;;0.20;0.20;;;1.10;99.90;;;;;;5055638;28;20052;-75
2023/03/16 05:34:24;;;;;;;0.20;0.20;;;1.20;99.90;;;;;;5038770;28;20025;-75
2023/03/16 05:36:49;;;;;;;0.13;0.13;;;1.10;99.90;;;;;;5056089;28;20108;-75
2023/03/16 05:39:15;;;;;;;0.20;0.20;;;1.20;99.90;;;;;;5038726;28;20025;-75
2023/03/16 05:41:41;;;;;;;0.10;0.10;;;1.20;99.90;;;;;;5053606;28;20017;-76
2023/03/16 05:44:07;;;;;;;0.13;0.13;;;1.20;99.90;;;;;;5053767;28;20432;-76
2023/03/16 05:46:32;;;;;;;0.10;0.10;;;1.30;99.90;;;;;;5035561;28;20498;-76
2023/03/16 05:48:58;;;;;;;0.20;0.20;;;1.30;99.90;;;;;;5053519;28;20104;-75
2023/03/16 05:51:26;;;;;;;0.10;0.10;;;1.20;99.90;;;;;;5035298;28;20048;-75
2023/03/16 05:53:56;;;;;;;0.20;0.20;;;1.30;99.90;;;;;;5053692;28;20025;-75
2023/03/16 05:56:23;;;;;;;0.20;0.20;;;1.30;99.90;;;;;;5035089;28;20025;-75
2023/03/16 05:58:50;;;;;;;0.20;0.20;;;1.30;99.90;;;;;;5035407;28;20032;-75
2023/03/16 06:01:16;;;;;;;0.10;0.10;;;1.40;99.90;;;;;;5053054;28;20111;-76
2023/03/16 06:03:41;;;;;;;0.20;0.20;;;1.40;99.90;;;;;;5035838;28;20490;-76
2023/03/16 06:06:07;;;;;;;0.20;0.20;;;1.40;99.90;;;;;;5053021;28;20040;-75
2023/03/16 06:08:32;;;;;;;0.10;0.10;;;1.50;99.90;;;;;;5035846;28;20024;-75
2023/03/16 06:10:58;;;;;;;0.20;0.20;;;1.40;99.90;;;;;;5053082;28;20032;-76
2023/03/16 06:13:23;;;;;;;0.10;0.10;;;1.50;99.90;;;;;;5053675;28;20029;-76
2023/03/16 06:15:49;;;;;;;0.15;0.15;;;1.50;99.90;;;;;;5035248;28;20375;-76
2023/03/16 06:18:14;;;;;;;0.15;0.15;;;1.50;99.90;;;;;;5053184;28;20131;-75
2023/03/16 06:20:40;;;;;;;0.20;0.20;;;1.50;99.90;;;;;;5052871;28;20075;-76
2023/03/16 06:23:05;;;;;;;0.20;0.20;;;1.50;99.90;;;;;;5035554;28;20017;-76
2023/03/16 06:25:31;;;;;;;0.20;0.20;;;1.60;99.90;;;;;;5053605;28;20029;-76
2023/03/16 06:27:56;;;;;;;0.10;0.10;;;1.60;99.90;;;;;;5035006;28;20029;-76
2023/03/16 06:30:22;;;;;;;0.20;0.20;;;1.60;99.90;;;;;;5053087;28;20391;-76
2023/03/16 06:32:48;;;;;;;0.30;0.30;;;1.60;99.90;;;;;;5037771;28;20478;-76
2023/03/16 06:35:13;;;;;;;0.20;0.20;;;1.60;99.90;;;;;;5039065;28;20441;-75
2023/03/16 06:37:39;;;;;;;0.20;0.20;;;1.70;99.90;;;;;;5056708;28;20492;-76
2023/03/16 06:40:06;;;;;;;0.20;0.20;;;1.70;99.90;;;;;;5056965;28;20078;-76
2023/03/16 06:42:32;;;;;;;0.10;0.10;;;1.70;99.90;;;;;;5038790;28;20025;-76
2023/03/16 06:44:58;;;;;;;0.20;0.20;;;1.80;99.90;;;;;;5038832;28;20024;-75
2023/03/16 06:47:24;;;;;;;0.20;0.20;;;1.80;99.90;;;;;;5056694;28;20029;-76
2023/03/16 06:49:50;;;;;;;0.20;0.20;;;1.80;99.90;;;;;;5056429;28;20021;-76
2023/03/16 06:52:16;;;;;;;0.10;0.10;;;1.90;99.90;;;;;;5038508;28;20508;-76
2023/03/16 06:54:41;;;;;;;0.20;0.20;;;1.90;99.90;;;;;;5056546;28;20112;-76
2023/03/16 06:57:07;;;;;;;0.20;0.20;;;1.90;99.90;;;;;;5056560;28;20466;-76
2023/03/16 06:59:33;;;;;;;0.15;0.15;;;2.00;99.90;;;;;;5038474;28;20033;-76
2023/03/16 07:02:00;;;;;;;0.20;0.20;;;2.00;99.90;;;;;;5056499;28;20474;-76
2023/03/16 07:04:26;;;;;;;0.20;0.20;;;2.00;99.90;;;;;;5038302;28;20123;-75
2023/03/16 07:06:51;;;;;;;0.20;0.20;;;2.00;99.90;;;;;;5056240;28;20060;-75
2023/03/16 07:09:17;;;;;;;0.20;0.20;;;2.00;99.90;;;;;;5056207;28;20021;-76
2023/03/16 07:11:43;;;;;;;0.20;0.20;;;2.00;99.90;;;;;;5056111;28;20028;-76
2023/03/16 07:14:10;;;;;;;0.20;0.20;;;2.00;99.90;;;;;;5056249;28;20082;-76
2023/03/16 07:16:36;;;;;;;0.20;0.20;;;2.10;99.90;;;;;;5056058;28;20079;-75
2023/03/16 07:19:01;;;;;;;0.20;0.20;;;2.10;99.90;;;;;;5038427;28;20425;-76
2023/03/16 07:21:27;;;;;;;0.20;0.20;;;2.10;99.90;;;;;;5038003;28;20021;-76
2023/03/16 07:23:54;;;;;;;0.20;0.20;;;2.20;99.90;;;;;;5056226;28;20513;-76
2023/03/16 07:26:20;;;;;;;0.10;0.10;;;2.30;99.90;;;;;;5037865;28;20130;-76
2023/03/16 07:28:45;;;;;;;0.20;0.20;;;2.40;99.90;;;;;;5055860;28;20474;-75
2023/03/16 07:31:11;;;;;;;0.20;0.20;;;2.40;99.90;;;;;;5038102;28;20159;-76
2023/03/16 07:33:37;;;;;;;0.20;0.20;;;2.50;99.90;;;;;;5055835;28;20485;-75
2023/03/16 07:36:03;;;;;;;0.20;0.20;;;2.60;99.90;;;;;;5055691;28;20032;-75
2023/03/16 07:38:31;;;;;;;0.20;0.20;;;2.70;99.90;;;;;;5037951;28;20044;-75
2023/03/16 07:40:57;;;;;;;0.10;0.10;;;2.80;99.90;;;;;;5037959;28;20032;-76
2023/03/16 07:43:23;;;;;;;0.20;0.20;;;2.80;99.90;;;;;;5055503;28;20545;-75
2023/03/16 07:45:50;;;;;;;0.20;0.20;;;2.90;99.90;;;;;;5037486;28;20112;-76
2023/03/16 07:48:16;;;;;;;0.10;0.10;;;2.90;99.90;;;;;;5037633;28;20021;-76
2023/03/16 07:50:41;;;;;;;0.20;0.20;;;3.00;99.90;;;;;;5055588;28;20028;-76
2023/03/16 07:53:07;;;;;;;0.20;0.20;;;3.00;99.90;;;;;;5055405;28;20036;-75
2023/03/16 07:55:35;;;;;;;0.20;0.20;;;3.10;99.90;;;;;;5055563;28;20425;-76
2023/03/16 07:58:01;;;;;;;0.20;0.20;;;3.10;99.90;;;;;;5055963;28;20378;-76
2023/03/16 08:00:26;;;;;;;0.20;0.20;;;3.10;99.90;;;;;;5055308;28;20017;-76
2023/03/16 08:02:52;;;;;;;0.22;0.22;;;3.10;99.90;;;;;;5037648;28;20424;-76
2023/03/16 08:05:18;;;;;;;0.20;0.20;;;3.20;99.90;;;;;;5055577;28;20021;-75
2023/03/16 08:07:44;;;;;;;0.20;0.20;;;3.20;99.90;;;;;;5055166;28;20024;-75
2023/03/16 08:10:10;;;;;;;0.20;0.20;;;3.30;99.90;;;;;;5037117;28;20406;-76
2023/03/16 08:12:36;;;;;;;0.20;0.20;;;3.30;99.90;;;;;;5055032;28;20104;-76
2023/03/16 08:15:01;;;;;;;0.20;0.20;;;3.30;99.90;;;;;;5037146;28;20482;-76
2023/03/16 08:17:27;;;;;;;0.20;0.20;;;3.40;99.90;;;;;;5036895;28;20039;-76
2023/03/16 08:19:53;;;;;;;0.20;0.20;;;3.40;99.90;;;;;;5037030;28;20059;-76
2023/03/16 08:22:19;;;;;;;0.20;0.20;;;3.50;99.90;;;;;;5037006;28;20029;-75
2023/03/16 08:24:45;;;;;;;0.10;0.10;;;3.50;99.90;;;;;;5037027;28;20021;-75
2023/03/16 08:27:12;;;;;;;0.20;0.20;;;3.50;99.90;;;;;;5054637;28;20032;-76
2023/03/16 08:29:37;;;;;;;0.17;0.17;;;3.60;99.90;;;;;;5054909;28;20505;-76
2023/03/16 08:32:03;;;;;;;0.17;0.17;;;3.70;99.90;;;;;;5036855;28;20025;-76
2023/03/16 08:34:29;;;;;;;0.30;0.30;;;3.70;99.90;;;;;;5020247;28;20032;-76
2023/03/16 08:36:54;;;;;;;0.25;0.25;;;3.70;99.90;;;;;;5054376;28;20027;-76
2023/03/16 08:39:20;;;;;;;0.20;0.20;;;3.70;99.90;;;;;;5036827;28;20086;-76
2023/03/16 08:41:47;;;;;;;0.10;0.10;;;3.80;99.90;;;;;;5036528;28;20112;-76
2023/03/16 08:44:12;;;;;;;0.30;0.30;;;3.90;99.90;;;;;;5054730;28;20020;-76
2023/03/16 08:46:39;;;;;;;0.10;0.10;;;4.00;99.90;;;;;;5054508;28;20025;-76
2023/03/16 08:49:05;;;;;;;0.28;0.28;;;4.00;99.90;;;;;;5036518;28;20036;-76
2023/03/16 08:51:33;;;;;;;0.20;0.20;;;4.10;99.90;;;;;;5054181;28;20028;-76
2023/03/16 08:53:58;;;;;;;0.20;0.20;;;4.20;99.90;;;;;;5053786;28;20021;-76
2023/03/16 08:56:24;;;;;;;0.17;0.17;;;4.20;99.90;;;;;;5035892;28;20028;-76
2023/03/16 08:58:50;;;;;;;0.17;0.17;;;4.20;99.90;;;;;;5054512;28;20036;-76
2023/03/16 09:01:17;;;;;;;0.25;0.25;;;4.30;99.90;;;;;;5054274;28;20023;-76
2023/03/16 09:03:45;;;;;;;0.20;0.20;;;4.40;99.90;;;;;;5054468;28;20016;-76
2023/03/16 09:06:12;;;;;;;0.20;0.20;;;4.40;99.90;;;;;;5035947;28;20029;-76
2023/03/16 09:08:38;;;;;;;0.20;0.20;;;4.60;99.90;;;;;;5053905;28;20051;-76
2023/03/16 09:11:11;;;;;;;0.20;0.20;;;4.70;99.90;;;;;;5053908;28;20053;-76
2023/03/16 09:13:38;;;;;;;0.30;0.30;;;4.70;99.90;;;;;;5053986;28;20542;-75
2023/03/16 09:16:05;;;;;;;0.20;0.20;;;4.80;99.90;;;;;;5036173;28;20033;-75
2023/03/16 09:18:31;;;;;;;0.20;0.20;;;4.80;99.90;;;;;;5055865;28;20449;-75
2023/03/16 09:21:00;;;;;;;0.30;0.30;;;5.00;99.90;;;;;;5056541;28;20024;-75
2023/03/16 09:23:26;;;;;;;0.20;0.20;;;5.00;99.90;;;;;;5056497;28;20024;-75
2023/03/16 09:25:55;;;;;;;0.10;0.10;;;5.00;99.90;;;;;;5054806;28;20108;-76
2023/03/16 09:28:21;;;;;;;0.20;0.20;;;5.10;99.90;;;;;;5035679;28;20061;-76
2023/03/16 09:30:47;;;;;;;0.20;0.20;;;5.10;99.90;;;;;;5053449;28;20086;-76
2023/03/16 09:33:12;;;;;;;0.20;0.20;;;5.20;99.90;;;;;;5053825;28;20021;-76
2023/03/16 09:35:38;;;;;;;0.20;0.20;;;5.40;99.90;;;;;;5053769;28;20027;-76
2023/03/16 09:38:04;;;;;;;0.13;0.13;;;5.40;99.90;;;;;;5053356;28;20108;-76
2023/03/16 09:40:30;;;;;;;0.20;0.20;;;5.50;99.90;;;;;;5053724;28;20478;-76
2023/03/16 09:43:22;;;;;;;0.20;0.20;;;5.60;99.90;;;;;;5053336;28;20139;-76
2023/03/16 09:46:00;;;;;;;0.30;0.30;;;5.60;99.90;;;;;;5053375;28;20021;-76
2023/03/16 09:48:29;;;;;;;0.20;0.20;;;5.70;99.90;;;;;;5053376;28;20104;-76
2023/03/16 09:50:57;;;;;;;0.10;0.10;;;5.80;99.90;;;;;;5053458;28;20355;-76
2023/03/16 09:53:33;;;;;;;0.13;0.13;;;5.90;99.90;;;;;;5053256;28;20142;-76
2023/03/16 09:56:12;;;;;;;0.20;0.20;;;6.00;99.90;;;;;;5035193;28;20024;-76
2023/03/16 09:58:38;;;;;;;0.20;0.20;;;6.10;99.90;;;;;;5053718;28;20028;-76
2023/03/16 10:01:17;;;;;;;0.20;0.20;;;6.00;99.90;;;;;;5035256;28;20025;-76
2023/03/16 10:03:59;;;;;;;0.20;0.20;;;6.00;99.90;;;;;;5035215;28;20398;-76
2023/03/16 10:06:25;;;;;;;0.20;0.20;;;6.10;99.90;;;;;;5076296;22;20103;-74
2023/03/16 10:08:58;;;;;;;0.20;0.20;;;6.10;99.90;;;;;;5052981;28;20094;-74
2023/03/16 10:11:44;;;;;;;0.23;0.23;;;6.10;99.90;;;;;;5053250;28;20013;-74
2023/03/16 10:14:27;;;;;;;0.20;0.20;;;6.30;99.90;;;;;;5053238;28;20053;-74
2023/03/16 10:17:05;;;;;;;0.20;0.20;;;6.20;99.90;;;;;;5053085;28;20021;-74
2023/03/16 10:19:44;;;;;;;0.20;0.20;;;6.30;99.90;;;;;;5053213;28;20021;-74
2023/03/16 10:22:18;;;;;;;0.20;0.20;;;6.40;99.90;;;;;;5053191;28;20017;-74
2023/03/16 10:25:15;;;;;;;0.30;0.30;;;6.60;99.90;;;;;;5052827;28;20017;-74
2023/03/16 10:27:43;;;;;;;0.10;0.10;;;6.60;99.90;;;;;;5052745;28;20102;-74
2023/03/16 10:30:33;;;;;;;0.10;0.10;;;6.60;99.90;;;;;;5052880;28;20088;-74
2023/03/16 10:33:25;;;;;;;0.20;0.20;;;6.60;99.90;;;;;;5053064;28;20399;-74
2023/03/16 10:35:54;;;;;;;0.20;0.20;;;6.70;99.90;;;;;;5052725;28;20017;-74
2023/03/16 10:38:54;;;;;;;0.30;0.30;;;6.70;99.90;;;;;;5052462;28;20035;-74
2023/03/16 10:41:42;;;;;;;0.20;0.20;;;6.90;99.90;;;;;;5029401;28;20037;-74
2023/03/16 10:44:13;;;;;;;0.20;0.20;;;7.00;99.90;;;;;;5052701;28;20538;-74
2023/03/16 10:46:47;;;;;;;0.20;0.20;;;7.20;99.90;;;;;;5052848;28;20029;-74
2023/03/16 10:49:24;;;;;;;0.20;0.20;;;7.20;99.90;;;;;;5034811;28;20025;-74
2023/03/16 10:51:56;;;;;;;0.20;0.20;;;7.20;99.90;;;;;;5052879;28;20040;-74
2023/03/16 10:54:29;;;;;;;0.20;0.20;;;7.30;99.90;;;;;;5052883;28;20032;-74
2023/03/16 10:56:56;;;;;;;0.10;0.10;;;7.40;99.90;;;;;;5052752;28;20022;-74
2023/03/16 10:59:33;;;;;;;0.20;0.20;;;7.40;99.90;;;;;;5052581;28;20451;-74
2023/03/16 11:02:02;;;;;;;0.20;0.20;;;7.50;99.90;;;;;;5034715;28;20075;-74
2023/03/16 11:04:32;;;;;;;0.20;0.20;;;7.50;99.90;;;;;;5052459;28;20029;-74
2023/03/16 11:06:57;;;;;;;0.20;0.20;;;7.50;99.90;;;;;;5052305;28;20075;-74
2023/03/16 11:09:42;;;;;;;0.20;0.20;;;7.40;99.90;;;;;;5052674;28;20025;-74
2023/03/16 11:12:21;;;;;;;0.25;0.25;;;7.40;99.90;;;;;;5052741;28;20048;-74
2023/03/16 11:14:47;;;;;;;0.20;0.20;;;7.60;99.90;;;;;;5052545;28;20075;-74
2023/03/16 11:17:18;;;;;;;0.20;0.20;;;7.50;99.90;;;;;;5052252;28;20029;-74
2023/03/16 11:19:53;;;;;;;0.20;0.20;;;7.40;99.90;;;;;;5056264;28;20428;-74
2023/03/16 11:22:24;;;;;;;0.30;0.30;;;7.30;99.90;;;;;;5056211;28;20025;-74
2023/03/16 11:24:59;;;;;;;0.20;0.20;;;7.40;99.90;;;;;;5056001;28;20390;-74
2023/03/16 11:27:30;;;;;;;0.20;0.20;;;7.40;99.90;;;;;;5055877;28;20031;-74
2023/03/16 11:30:00;;;;;;;0.20;0.20;;;7.20;99.90;;;;;;5056074;28;20017;-74
2023/03/16 11:32:32;;;;;;;0.20;0.20;;;7.20;99.90;;;;;;5055711;28;20029;-74
2023/03/16 11:34:58;;;;;;;0.20;0.20;;;7.20;99.90;;;;;;5037859;28;20028;-74
2023/03/16 11:37:46;;;;;;;0.20;0.20;;;7.30;99.90;;;;;;5055735;28;20025;-74
2023/03/16 11:40:35;;;;;;;0.20;0.20;;;7.30;99.90;;;;;;5055883;28;20060;-74
2023/03/16 11:43:16;;;;;;;0.20;0.20;;;7.30;99.90;;;;;;5055827;28;20013;-74
2023/03/16 11:46:07;;;;;;;0.30;0.30;;;7.30;99.90;;;;;;5055698;28;20029;-74
2023/03/16 11:48:58;;;;;;;0.20;0.20;;;7.30;99.90;;;;;;5037556;28;20075;-74
2023/03/16 11:51:51;;;;;;;0.20;0.20;;;7.30;99.90;;;;;;5055381;28;20060;-74
2023/03/16 11:54:54;;;;;;;0.15;0.15;;;7.20;99.90;;;;;;5055873;28;20467;-74
2023/03/16 11:57:34;;;;;;;0.20;0.20;;;7.20;99.90;;;;;;5055087;28;20076;-74
2023/03/16 12:00:12;;;;;;;0.10;0.10;;;7.20;99.90;;;;;;5055219;28;20049;-73
2023/03/16 12:02:40;;;;;;;0.15;0.15;;;7.30;99.90;;;;;;5055177;28;20052;-74
2023/03/16 12:05:22;;;;;;;0.20;0.20;;;7.40;99.90;;;;;;5055349;28;20072;-74
2023/03/16 12:07:47;;;;;;;0.20;0.20;;;7.40;99.90;;;;;;5054723;28;20040;-74
2023/03/16 12:10:24;;;;;;;0.20;0.20;;;7.50;99.90;;;;;;5054993;28;20025;-74
2023/03/16 12:13:15;;;;;;;0.20;0.20;;;7.50;99.90;;;;;;5037193;28;20036;-74
2023/03/16 12:15:53;;;;;;;0.20;0.20;;;7.60;99.90;;;;;;5054941;28;20394;-74
2023/03/16 12:18:31;;;;;;;0.20;0.20;;;7.80;99.90;;;;;;5055383;28;20029;-74
2023/03/16 12:21:04;;;;;;;0.10;0.10;;;7.80;99.90;;;;;;5054802;28;20021;-74
2023/03/16 12:23:38;;;;;;;0.28;0.28;;;7.80;99.90;;;;;;5054959;28;20025;-73
2023/03/16 12:26:04;;;;;;;0.20;0.20;;;7.80;99.90;;;;;;5054650;28;20026;-74
2023/03/16 12:28:32;;;;;;;0.20;0.20;;;7.80;99.90;;;;;;5054584;28;20032;-74
2023/03/16 12:31:23;;;;;;;0.20;0.20;;;7.80;99.90;;;;;;5035872;28;20029;-74
2023/03/16 12:34:23;;;;;;;0.20;0.20;;;7.90;99.90;;;;;;5019186;28;20041;-74
2023/03/16 12:37:04;;;;;;;0.20;0.20;;;7.90;99.90;;;;;;5054511;28;20033;-74
2023/03/16 12:40:05;;;;;;;0.20;0.20;;;7.90;99.90;;;;;;5036552;28;20111;-74
2023/03/16 12:42:55;;;;;;;0.20;0.20;;;7.90;99.90;;;;;;5054961;28;20021;-74
2023/03/16 12:45:33;;;;;;;0.20;0.20;;;8.00;99.90;;;;;;5054651;28;20432;-74
2023/03/16 12:48:19;;;;;;;0.20;0.20;;;8.10;99.90;;;;;;5054274;28;20025;-74
2023/03/16 12:50:57;;;;;;;0.20;0.20;;;8.10;99.90;;;;;;5036653;28;20025;-74
2023/03/16 12:53:41;;;;;;;0.20;0.20;;;8.20;99.90;;;;;;5036432;28;20032;-74
2023/03/16 12:56:09;;;;;;;0.20;0.20;;;8.20;99.90;;;;;;5054360;28;20059;-74
2023/03/16 12:58:38;;;;;;;0.20;0.20;;;8.20;99.90;;;;;;5036132;28;20021;-74
2023/03/16 13:01:09;;;;;;;0.20;0.20;;;8.00;99.90;;;;;;5036170;28;20043;-74
2023/03/16 13:03:35;;;;;;;0.20;0.20;;;8.00;99.90;;;;;;5054105;28;20036;-73
2023/03/16 13:06:02;;;;;;;0.13;0.13;;;8.00;99.90;;;;;;5053744;28;20116;-74